Time,TemperatureF,DewpointF,PressureIn,WindDirection,WindDirectionDegrees,WindSpeedMPH,WindSpeedGustMPH,Humidity,HourlyPrecipIn,Conditions,Clouds,dailyrainin,SoftwareType,DateUTC
2014-01-06 00:01:00,27.1,23.2,30.20,East,87,0.0,3.0,85,0.00,OVC,OVC,0.00,WeatherDisplay:10.34,2014-01-06 05:01:00,
2014-01-06 00:02:00,27.1,23.2,30.20,East,84,0.0,3.0,85,0.00,OVC,OVC,0.00,WeatherDisplay:10.34,2014-01-06 05:02:00,
2014-01-06 00:03:00,27.1,23.2,30.20,East,84,0.0,0.0,85,0.00,OVC,OVC,0.00,WeatherDisplay:10.34,2014-01-06 05:03:00,
2014-01-06 00:08:00,27.0,23.1,30.20,ENE,72,0.0,0.0,85,0.00,OVC,OVC,0.00,WeatherDisplay:10.34,2014-01-06 05:08:00,
2014-01-06 00:12:00,27.0,23.3,30.20,ENE,70,0.0,3.0,86,0.00,OVC,OVC,0.00,WeatherDisplay:10.34,2014-01-06 05:12:00,
2014-01-06 00:13:00,27.0,23.3,30.20,ENE,70,3.0,3.0,86,0.00,OVC,OVC,0.00,WeatherDisplay:10.34,2014-01-06 05:13:00,
2014-01-06 00:18:00,26.8,23.2,30.20,East,82,0.0,0.0,86,0.00,OVC,OVC,0.00,WeatherDisplay:10.34,2014-01-06 05:18:00,
2014-01-06 00:23:00,26.8,23.2,30.20,ENE,58,0.0,2.0,86,0.00,OVC,OVC,0.00,WeatherDisplay:10.34,2014-01-06 05:23:00,
2014-01-06 00:28:00,27.0,23.6,30.20,ENE,75,0.0,2.0,87,0.00,OVC,OVC,0.00,WeatherDisplay:10.34,2014-01-06 05:28:00,
2014-01-06 00:33:00,26.8,23.4,30.17,East,94,0.0,3.0,87,0.00,OVC,OVC,0.00,WeatherDisplay:10.34,2014-01-06 05:33:00,
2014-01-06 00:38:00,26.8,23.4,30.16,East,90,0.0,2.0,87,0.00,OVC,OVC,0.00,WeatherDisplay:10.34,2014-01-06 05:38:00,
2014-01-06 00:43:00,26.8,23.4,30.16,ENE,75,0.0,3.0,87,0.00,OVC,OVC,0.00,WeatherDisplay:10.34,2014-01-06 05:43:00,
2014-01-06 00:48:00,27.0,23.6,30.16,ESE,119,0.0,0.0,87,0.00,OVC,OVC,0.00,WeatherDisplay:10.34,2014-01-06 05:48:00,
2014-01-06 00:53:00,27.1,24.1,30.16,ESE,109,0.0,3.0,88,0.00,OVC,OVC,0.00,WeatherDisplay:10.34,2014-01-06 05:53:00,
2014-01-06 00:58:00,27.1,24.1,30.16,ENE,78,0.0,0.0,88,0.00,OVC,OVC,0.00,WeatherDisplay:10.34,2014-01-06 05:58:00,
2014-01-06 01:03:00,27.3,24.2,30.13,East,81,0.0,0.0,88,0.00,OVC,OVC,0.00,WeatherDisplay:10.34,2014-01-06 06:03:00,
2014-01-06 01:08:00,27.3,24.2,30.13,ESE,109,0.0,0.0,88,0.00,OVC,OVC,0.00,WeatherDisplay:10.34,2014-01-06 06:08:00,
2014-01-06 01:13:00,27.3,24.2,30.13,ESE,108,0.0,0.0,88,0.00,OVC,OVC,0.00,WeatherDisplay:10.34,2014-01-06 06:13:00,
2014-01-06 01:18:00,27.5,24.4,30.13,ESE,108,0.0,0.0,88,0.00,OVC,OVC,0.00,WeatherDisplay:10.34,2014-01-06 06:18:00,
2014-01-06 01:23:00,27.5,24.4,30.13,ESE,109,0.0,0.0,88,0.00,OVC,OVC,0.00,WeatherDisplay:10.34,2014-01-06 06:23:00,
2014-01-06 01:28:00,27.5,24.4,30.13,East,83,0.0,0.0,88,0.00,OVC,OVC,0.00,WeatherDisplay:10.34,2014-01-06 06:28:00,
2014-01-06 01:33:00,27.5,24.4,30.13,ENE,77,0.0,0.0,88,0.00,OVC,OVC,0.00,WeatherDisplay:10.34,2014-01-06 06:33:00,
2014-01-06 01:38:00,27.7,24.9,30.13,East,83,0.0,0.0,89,0.00,OVC,OVC,0.00,WeatherDisplay:10.34,2014-01-06 06:38:00,
2014-01-06 01:43:00,27.7,24.9,30.13,ENE,62,0.0,0.0,89,0.00,OVC,OVC,0.00,WeatherDisplay:10.34,2014-01-06 06:43:00,
2014-01-06 01:48:00,27.9,25.0,30.10,ENE,61,0.0,0.0,89,0.00,OVC,OVC,0.00,WeatherDisplay:10.34,2014-01-06 06:48:00,
2014-01-06 01:53:00,27.9,25.0,30.10,East,80,0.0,0.0,89,0.00,OVC,OVC,0.00,WeatherDisplay:10.34,2014-01-06 06:53:00,
2014-01-06 01:58:00,27.9,25.0,30.10,East,80,0.0,0.0,89,0.00,OVC,OVC,0.00,WeatherDisplay:10.34,2014-01-06 06:58:00,
2014-01-06 02:03:00,27.9,25.0,30.10,East,95,0.0,0.0,89,0.00,OVC,OVC,0.00,WeatherDisplay:10.34,2014-01-06 07:03:00,
2014-01-06 02:08:00,28.0,25.2,30.10,ENE,70,0.0,2.0,89,0.00,OVC,OVC,0.00,WeatherDisplay:10.34,2014-01-06 07:08:00,
2014-01-06 02:13:00,28.2,25.7,30.10,ENE,73,0.0,0.0,90,0.00,OVC,OVC,0.00,WeatherDisplay:10.34,2014-01-06 07:13:00,
2014-01-06 02:18:00,28.2,25.7,30.07,East,82,0.0,0.0,90,0.00,OVC,OVC,0.00,WeatherDisplay:10.34,2014-01-06 07:18:00,
2014-01-06 02:23:00,28.2,25.7,30.07,East,82,0.0,0.0,90,0.00,OVC,OVC,0.00,WeatherDisplay:10.34,2014-01-06 07:23:00,
2014-01-06 02:28:00,28.2,25.7,30.07,ENE,61,0.0,0.0,90,0.00,OVC,OVC,0.00,WeatherDisplay:10.34,2014-01-06 07:28:00,
2014-01-06 02:33:00,28.2,25.7,30.04,East,79,0.0,2.0,90,0.00,OVC,OVC,0.00,WeatherDisplay:10.34,2014-01-06 07:33:00,
2014-01-06 02:38:00,28.2,25.7,30.04,ENE,78,0.0,0.0,90,0.00,OVC,OVC,0.00,WeatherDisplay:10.34,2014-01-06 07:38:00,
2014-01-06 02:44:00,28.2,25.7,30.04,ENE,78,0.0,0.0,90,0.00,OVC,OVC,0.00,WeatherDisplay:10.34,2014-01-06 07:44:00,
2014-01-06 02:49:00,28.4,25.8,30.04,ENE,78,0.0,0.0,90,0.00,OVC,OVC,0.00,WeatherDisplay:10.34,2014-01-06 07:49:00,
2014-01-06 02:54:00,28.4,25.8,30.04,ENE,76,0.0,0.0,90,0.00,OVC,OVC,0.00,WeatherDisplay:10.34,2014-01-06 07:54:00,
2014-01-06 02:59:00,28.4,26.1,30.04,SSE,150,0.0,0.0,91,0.00,OVC,OVC,0.00,WeatherDisplay:10.34,2014-01-06 07:59:00,
2014-01-06 03:04:00,28.4,26.1,30.04,East,99,0.0,0.0,91,0.00,OVC,OVC,0.00,WeatherDisplay:10.34,2014-01-06 08:04:00,
2014-01-06 03:09:00,28.4,26.1,30.04,East,99,0.0,0.0,91,0.00,OVC,OVC,0.00,WeatherDisplay:10.34,2014-01-06 08:09:00,
2014-01-06 03:14:00,28.4,26.1,30.04,East,99,0.0,0.0,91,0.00,OVC,OVC,0.00,WeatherDisplay:10.34,2014-01-06 08:14:00,
2014-01-06 03:19:00,28.4,26.1,30.01,East,98,0.0,0.0,91,0.00,OVC,OVC,0.00,WeatherDisplay:10.34,2014-01-06 08:19:00,
2014-01-06 03:24:00,28.6,26.3,30.01,East,98,0.0,0.0,91,0.00,OVC,OVC,0.00,WeatherDisplay:10.34,2014-01-06 08:24:00,
2014-01-06 03:29:00,28.6,26.3,30.01,East,98,0.0,0.0,91,0.00,OVC,OVC,0.00,WeatherDisplay:10.34,2014-01-06 08:29:00,
2014-01-06 03:34:00,28.8,26.5,29.98,East,98,0.0,0.0,91,0.00,OVC,OVC,0.00,WeatherDisplay:10.34,2014-01-06 08:34:00,
2014-01-06 03:39:00,28.8,26.5,29.98,East,98,0.0,0.0,91,0.00,OVC,OVC,0.00,WeatherDisplay:10.34,2014-01-06 08:39:00,
2014-01-06 03:44:00,28.8,26.5,29.98,East,98,0.0,0.0,91,0.00,OVC,OVC,0.00,WeatherDisplay:10.34,2014-01-06 08:44:00,
2014-01-06 03:49:00,28.9,26.9,29.98,ESE,103,0.0,0.0,92,0.00,OVC,OVC,0.00,WeatherDisplay:10.34,2014-01-06 08:49:00,
2014-01-06 03:54:00,28.9,26.9,29.98,ENE,66,0.0,2.0,92,0.00,OVC,OVC,0.00,WeatherDisplay:10.34,2014-01-06 08:54:00,
2014-01-06 03:59:00,28.9,26.9,29.98,ENE,66,0.0,0.0,92,0.00,OVC,OVC,0.00,WeatherDisplay:10.34,2014-01-06 08:59:00,
2014-01-06 04:04:00,29.1,27.1,29.95,ENE,66,0.0,0.0,92,0.00,OVC,OVC,0.00,WeatherDisplay:10.34,2014-01-06 09:04:00,
2014-01-06 04:09:00,29.1,27.1,29.95,ENE,66,0.0,0.0,92,0.00,OVC,OVC,0.00,WeatherDisplay:10.34,2014-01-06 09:09:00,
2014-01-06 04:14:00,29.3,27.3,29.95,ENE,66,0.0,0.0,92,0.00,OVC,OVC,0.00,WeatherDisplay:10.34,2014-01-06 09:14:00,
2014-01-06 04:19:00,29.3,27.3,29.92,ENE,66,0.0,0.0,92,0.00,OVC,OVC,0.00,WeatherDisplay:10.34,2014-01-06 09:19:00,
2014-01-06 04:24:00,29.3,27.3,29.92,ENE,65,0.0,0.0,92,0.00,OVC,OVC,0.00,WeatherDisplay:10.34,2014-01-06 09:24:00,
2014-01-06 04:29:00,29.3,27.3,29.92,ENE,66,0.0,0.0,92,0.00,OVC,OVC,0.00,WeatherDisplay:10.34,2014-01-06 09:29:00,
2014-01-06 04:34:00,29.5,27.4,29.92,ENE,65,0.0,0.0,92,0.00,OVC,OVC,0.00,WeatherDisplay:10.34,2014-01-06 09:34:00,
2014-01-06 04:39:00,29.5,27.4,29.92,ENE,65,0.0,0.0,92,0.00,OVC,OVC,0.00,WeatherDisplay:10.34,2014-01-06 09:39:00,
2014-01-06 04:44:00,29.7,27.9,29.92,ENE,65,0.0,0.0,93,0.00,OVC,OVC,0.00,WeatherDisplay:10.34,2014-01-06 09:44:00,
2014-01-06 04:49:00,29.8,28.1,29.89,ENE,65,0.0,0.0,93,0.00,OVC,OVC,0.00,WeatherDisplay:10.34,2014-01-06 09:49:00,
2014-01-06 04:54:00,30.0,28.2,29.88,ENE,66,0.0,0.0,93,0.00,OVC,OVC,0.00,WeatherDisplay:10.34,2014-01-06 09:54:00,
2014-01-06 04:59:00,30.0,28.2,29.88,ENE,65,0.0,0.0,93,0.00,OVC,OVC,0.00,WeatherDisplay:10.34,2014-01-06 09:59:00,
2014-01-06 05:05:00,30.4,28.6,29.88,ENE,66,0.0,0.0,93,0.00,OVC,OVC,0.00,WeatherDisplay:10.34,2014-01-06 10:05:00,
2014-01-06 05:10:00,30.4,28.6,29.88,ENE,66,0.0,0.0,93,0.00,OVC,OVC,0.00,WeatherDisplay:10.34,2014-01-06 10:10:00,
2014-01-06 05:15:00,30.7,29.0,29.88,ENE,66,0.0,0.0,93,0.00,OVC,OVC,0.00,WeatherDisplay:10.34,2014-01-06 10:15:00,
2014-01-06 05:20:00,30.9,29.1,29.85,ENE,65,0.0,0.0,93,0.00,OVC,OVC,0.00,WeatherDisplay:10.34,2014-01-06 10:20:00,
2014-01-06 05:25:00,31.3,29.5,29.85,ENE,65,0.0,0.0,93,0.00,OVC,OVC,0.00,WeatherDisplay:10.34,2014-01-06 10:25:00,
2014-01-06 05:30:00,31.3,29.5,29.85,ENE,65,0.0,0.0,93,0.00,OVC,OVC,0.00,WeatherDisplay:10.34,2014-01-06 10:30:00,
2014-01-06 05:35:00,31.5,29.7,29.85,ENE,66,0.0,0.0,93,0.00,OVC,OVC,0.00,WeatherDisplay:10.34,2014-01-06 10:35:00,
2014-01-06 05:40:00,31.5,29.7,29.85,ENE,66,0.0,0.0,93,0.00,OVC,OVC,0.00,WeatherDisplay:10.34,2014-01-06 10:40:00,
2014-01-06 05:45:00,31.5,29.7,29.85,ENE,66,0.0,0.0,93,0.00,OVC,OVC,0.00,WeatherDisplay:10.34,2014-01-06 10:45:00,
2014-01-06 05:50:00,31.5,29.7,29.82,ENE,66,0.0,0.0,93,0.00,OVC,OVC,0.00,WeatherDisplay:10.34,2014-01-06 10:50:00,
2014-01-06 05:55:00,31.5,29.7,29.82,ENE,66,0.0,0.0,93,0.00,OVC,OVC,0.00,WeatherDisplay:10.34,2014-01-06 10:55:00,
2014-01-06 06:00:00,31.6,29.8,29.82,ENE,66,0.0,0.0,93,0.00,OVC,OVC,0.00,WeatherDisplay:10.34,2014-01-06 11:00:00,
2014-01-06 06:05:00,31.6,29.8,29.82,ENE,66,0.0,0.0,93,0.00,OVC,OVC,0.00,WeatherDisplay:10.34,2014-01-06 11:05:00,
2014-01-06 06:10:00,31.6,30.1,29.82,ENE,66,0.0,0.0,94,0.00,OVC,OVC,0.00,WeatherDisplay:10.34,2014-01-06 11:10:00,
2014-01-06 06:15:00,31.8,30.3,29.82,ENE,66,0.0,0.0,94,0.00,OVC,OVC,0.00,WeatherDisplay:10.34,2014-01-06 11:15:00,
2014-01-06 06:20:00,31.8,30.3,29.82,ENE,66,0.0,0.0,94,0.00,OVC,OVC,0.00,WeatherDisplay:10.34,2014-01-06 11:20:00,
2014-01-06 06:25:00,31.8,30.3,29.82,ENE,66,0.0,0.0,94,0.00,OVC,OVC,0.00,WeatherDisplay:10.34,2014-01-06 11:25:00,
2014-01-06 06:30:00,32.0,30.5,29.82,ENE,66,0.0,0.0,94,0.00,OVC,OVC,0.00,WeatherDisplay:10.34,2014-01-06 11:30:00,
2014-01-06 06:35:00,32.0,30.5,29.79,ENE,66,0.0,0.0,94,0.00,OVC,OVC,0.00,WeatherDisplay:10.34,2014-01-06 11:35:00,
2014-01-06 06:40:00,32.0,30.5,29.79,ENE,66,0.0,0.0,94,0.00,OVC,OVC,0.00,WeatherDisplay:10.34,2014-01-06 11:40:00,
2014-01-06 06:45:00,32.0,30.5,29.79,ENE,66,0.0,0.0,94,0.00,OVC,OVC,0.00,WeatherDisplay:10.34,2014-01-06 11:45:00,
2014-01-06 06:50:00,32.0,30.5,29.79,ENE,66,0.0,0.0,94,0.00,OVC,OVC,0.00,WeatherDisplay:10.34,2014-01-06 11:50:00,
2014-01-06 06:55:00,32.0,30.5,29.79,ENE,66,0.0,0.0,94,0.00,OVC,OVC,0.00,WeatherDisplay:10.34,2014-01-06 11:55:00,
2014-01-06 07:00:00,32.0,30.5,29.79,ENE,68,0.0,0.0,94,0.00,OVC,OVC,0.00,WeatherDisplay:10.34,2014-01-06 12:00:00,
2014-01-06 07:05:00,32.0,30.5,29.79,ENE,68,0.0,0.0,94,0.00,OVC,OVC,0.00,WeatherDisplay:10.34,2014-01-06 12:05:00,
2014-01-06 07:10:00,32.0,30.5,29.79,ENE,68,0.0,0.0,94,0.00,OVC,OVC,0.00,WeatherDisplay:10.34,2014-01-06 12:10:00,
2014-01-06 07:15:00,32.0,30.5,29.79,ENE,68,0.0,0.0,94,0.00,OVC,OVC,0.00,WeatherDisplay:10.34,2014-01-06 12:15:00,
2014-01-06 07:20:00,32.2,30.6,29.76,ENE,68,0.0,0.0,94,0.00,OVC,OVC,0.00,WeatherDisplay:10.34,2014-01-06 12:20:00,
2014-01-06 07:25:00,32.2,30.6,29.76,ENE,68,0.0,0.0,94,0.00,OVC,OVC,0.00,WeatherDisplay:10.34,2014-01-06 12:25:00,
2014-01-06 07:30:00,32.2,30.6,29.76,ENE,68,0.0,0.0,94,0.00,OVC,OVC,0.00,WeatherDisplay:10.34,2014-01-06 12:30:00,
2014-01-06 07:35:00,32.2,30.6,29.76,ENE,68,0.0,0.0,94,0.00,OVC,OVC,0.00,WeatherDisplay:10.34,2014-01-06 12:35:00,
2014-01-06 07:40:00,32.2,30.6,29.76,ENE,68,0.0,0.0,94,0.00,OVC,OVC,0.00,WeatherDisplay:10.34,2014-01-06 12:40:00,
2014-01-06 07:45:00,32.2,30.6,29.76,ENE,68,0.0,0.0,94,0.00,OVC,OVC,0.00,WeatherDisplay:10.34,2014-01-06 12:45:00,
2014-01-06 07:50:00,32.4,30.8,29.73,ENE,68,0.0,0.0,94,0.00,OVC,OVC,0.00,WeatherDisplay:10.34,2014-01-06 12:50:00,
2014-01-06 07:55:00,32.4,30.8,29.73,ENE,68,0.0,0.0,94,0.00,OVC,OVC,0.00,WeatherDisplay:10.34,2014-01-06 12:55:00,
2014-01-06 08:00:00,32.4,30.8,29.73,ENE,68,0.0,0.0,94,0.00,OVC,OVC,0.00,WeatherDisplay:10.34,2014-01-06 13:00:00,
2014-01-06 08:05:00,32.4,30.8,29.73,ENE,68,0.0,0.0,94,0.00,OVC,OVC,0.00,WeatherDisplay:10.34,2014-01-06 13:05:00,
2014-01-06 08:10:00,32.5,31.0,29.73,ENE,68,0.0,0.0,94,0.00,OVC,OVC,0.00,WeatherDisplay:10.34,2014-01-06 13:10:00,
2014-01-06 08:15:00,32.5,31.0,29.73,ENE,68,0.0,0.0,94,0.00,OVC,OVC,0.00,WeatherDisplay:10.34,2014-01-06 13:15:00,
2014-01-06 08:20:00,32.5,31.0,29.69,ENE,68,0.0,0.0,94,0.00,OVC,OVC,0.00,WeatherDisplay:10.34,2014-01-06 13:20:00,
2014-01-06 08:25:00,32.5,31.0,29.70,ENE,68,0.0,0.0,94,0.00,OVC,OVC,0.00,WeatherDisplay:10.34,2014-01-06 13:25:00,
2014-01-06 08:30:00,32.5,31.0,29.70,ENE,68,0.0,0.0,94,0.00,OVC,OVC,0.00,WeatherDisplay:10.34,2014-01-06 13:30:00,
2014-01-06 08:35:00,32.5,31.0,29.70,ENE,68,0.0,0.0,94,0.00,OVC,OVC,0.00,WeatherDisplay:10.34,2014-01-06 13:35:00,
2014-01-06 08:40:00,32.5,31.3,29.70,ENE,68,0.0,0.0,95,0.00,OVC,OVC,0.00,WeatherDisplay:10.34,2014-01-06 13:40:00,
2014-01-06 08:45:00,32.5,31.3,29.70,ENE,68,0.0,0.0,95,0.00,OVC,OVC,0.00,WeatherDisplay:10.34,2014-01-06 13:45:00,
2014-01-06 08:50:00,32.5,31.3,29.67,ENE,68,0.0,0.0,95,0.00,OVC,OVC,0.00,WeatherDisplay:10.34,2014-01-06 13:50:00,
2014-01-06 08:55:00,32.5,31.3,29.67,ENE,68,0.0,0.0,95,0.00,OVC,OVC,0.00,WeatherDisplay:10.34,2014-01-06 13:55:00,
2014-01-06 09:00:00,32.5,31.3,29.67,ENE,68,0.0,0.0,95,0.00,OVC,OVC,0.00,WeatherDisplay:10.34,2014-01-06 14:00:00,
2014-01-06 09:05:00,32.7,31.4,29.67,ENE,69,0.0,0.0,95,0.00,OVC,OVC,0.00,WeatherDisplay:10.34,2014-01-06 14:05:00,
2014-01-06 09:10:00,32.7,31.4,29.67,ENE,68,0.0,0.0,95,0.00,OVC,OVC,0.00,WeatherDisplay:10.34,2014-01-06 14:10:00,
2014-01-06 09:15:00,32.7,31.4,29.63,ENE,68,0.0,0.0,95,0.00,OVC,OVC,0.00,WeatherDisplay:10.34,2014-01-06 14:15:00,
2014-01-06 09:20:00,32.7,31.4,29.64,ENE,69,0.0,0.0,95,0.00,OVC,OVC,0.00,WeatherDisplay:10.34,2014-01-06 14:20:00,
2014-01-06 09:25:00,32.7,31.4,29.64,ENE,69,0.0,0.0,95,0.00,OVC,OVC,0.00,WeatherDisplay:10.34,2014-01-06 14:25:00,
2014-01-06 09:30:00,32.7,31.4,29.64,ENE,67,0.0,0.0,95,0.00,OVC,OVC,0.00,WeatherDisplay:10.34,2014-01-06 14:30:00,
2014-01-06 09:35:00,32.7,31.4,29.64,ENE,67,0.0,0.0,95,0.00,OVC,OVC,0.00,WeatherDisplay:10.34,2014-01-06 14:35:00,
2014-01-06 09:40:00,32.9,31.6,29.64,ENE,67,0.0,0.0,95,0.00,OVC,OVC,0.00,WeatherDisplay:10.34,2014-01-06 14:40:00,
2014-01-06 09:45:00,32.9,31.6,29.64,ENE,67,0.0,0.0,95,0.00,OVC,OVC,0.00,WeatherDisplay:10.34,2014-01-06 14:45:00,
2014-01-06 09:50:00,32.9,31.6,29.60,ENE,67,0.0,0.0,95,0.00,OVC,OVC,0.00,WeatherDisplay:10.34,2014-01-06 14:50:00,
2014-01-06 09:55:00,32.9,31.6,29.60,ENE,67,0.0,0.0,95,0.00,OVC,OVC,0.00,WeatherDisplay:10.34,2014-01-06 14:55:00,
2014-01-06 10:00:00,32.9,31.6,29.60,ENE,67,0.0,0.0,95,0.00,OVC,OVC,0.00,WeatherDisplay:10.34,2014-01-06 15:00:00,
2014-01-06 10:05:00,32.9,31.6,29.60,ENE,67,0.0,0.0,95,0.00,OVC,OVC,0.00,WeatherDisplay:10.34,2014-01-06 15:05:00,
2014-01-06 10:10:00,32.9,31.9,29.60,South,171,0.0,0.0,96,0.00,OVC,OVC,0.00,WeatherDisplay:10.34,2014-01-06 15:10:00,
2014-01-06 10:15:00,33.1,31.8,29.60,SSE,168,0.0,0.0,95,0.00,OVC,OVC,0.00,WeatherDisplay:10.34,2014-01-06 15:15:00,
2014-01-06 10:20:00,34.0,33.0,29.57,SSE,168,0.0,0.0,96,0.00,OVC,OVC,0.00,WeatherDisplay:10.34,2014-01-06 15:20:00,
2014-01-06 10:25:00,36.1,35.4,29.57,South,169,0.0,6.0,97,0.00,OVC,OVC,0.00,WeatherDisplay:10.34,2014-01-06 15:25:00,
2014-01-06 10:30:00,36.3,35.6,29.57,South,169,0.0,3.0,97,0.00,OVC,OVC,0.00,WeatherDisplay:10.34,2014-01-06 15:30:00,
2014-01-06 10:35:00,36.1,35.4,29.57,South,170,0.0,0.0,97,0.00,OVC,OVC,0.00,WeatherDisplay:10.34,2014-01-06 15:35:00,
2014-01-06 10:40:00,36.1,35.4,29.57,SSW,199,0.0,7.0,97,0.00,OVC,OVC,0.00,WeatherDisplay:10.34,2014-01-06 15:40:00,
2014-01-06 10:45:00,36.5,35.7,29.57,South,176,3.0,6.0,97,0.00,OVC,OVC,0.00,WeatherDisplay:10.34,2014-01-06 15:45:00,
2014-01-06 10:50:00,37.2,36.4,29.54,WSW,257,3.0,8.0,97,0.00,OVC,OVC,0.00,WeatherDisplay:10.34,2014-01-06 15:50:00,
2014-01-06 10:55:00,38.1,37.3,29.54,WNW,294,0.0,5.0,97,0.00,OVC,OVC,0.00,WeatherDisplay:10.34,2014-01-06 15:55:00,
2014-01-06 11:00:00,38.7,37.9,29.53,South,191,4.0,14.0,97,0.00,OVC,OVC,0.00,WeatherDisplay:10.34,2014-01-06 16:00:00,
2014-01-06 11:06:00,42.6,41.8,29.50,West,273,3.0,7.0,97,0.00,OVC,OVC,0.00,WeatherDisplay:10.34,2014-01-06 16:06:00,
2014-01-06 11:11:00,43.5,42.7,29.50,WSW,254,3.0,6.0,97,0.00,OVC,OVC,0.00,WeatherDisplay:10.34,2014-01-06 16:11:00,
2014-01-06 11:16:00,43.3,42.5,29.50,SSW,198,0.0,6.0,97,0.00,OVC,OVC,0.00,WeatherDisplay:10.34,2014-01-06 16:16:00,
2014-01-06 11:21:00,43.2,42.4,29.50,South,178,3.0,6.0,97,0.00,OVC,OVC,0.00,WeatherDisplay:10.34,2014-01-06 16:21:00,
2014-01-06 11:26:00,44.1,43.3,29.50,South,191,0.0,2.0,97,0.00,OVC,OVC,0.00,WeatherDisplay:10.34,2014-01-06 16:26:00,
2014-01-06 11:31:00,43.5,42.7,29.47,WSW,245,3.0,7.0,97,0.00,OVC,OVC,0.00,WeatherDisplay:10.34,2014-01-06 16:31:00,
2014-01-06 11:36:00,43.3,42.5,29.47,SSW,207,0.0,0.0,97,0.00,OVC,OVC,0.00,WeatherDisplay:10.34,2014-01-06 16:36:00,
2014-01-06 11:41:00,42.8,42.0,29.47,SSW,205,0.0,7.0,97,0.00,OVC,OVC,0.00,WeatherDisplay:10.34,2014-01-06 16:41:00,
2014-01-06 11:47:00,43.5,42.7,29.43,South,189,3.0,3.0,97,0.00,OVC,OVC,0.00,WeatherDisplay:10.34,2014-01-06 16:47:00,
2014-01-06 11:52:00,44.2,43.4,29.43,SSE,165,3.0,6.0,97,0.00,OVC,OVC,0.00,WeatherDisplay:10.34,2014-01-06 16:52:00,
2014-01-06 11:57:00,45.1,44.3,29.43,SW,217,6.0,9.0,97,0.00,OVC,OVC,0.00,WeatherDisplay:10.34,2014-01-06 16:57:00,
2014-01-06 12:02:00,46.0,45.2,29.43,West,266,4.0,8.0,97,0.00,OVC,OVC,0.00,WeatherDisplay:10.34,2014-01-06 17:02:00,
2014-01-06 12:07:00,46.4,45.6,29.43,NW,326,3.0,9.0,97,0.00,BKN,BKN,0.00,WeatherDisplay:10.34,2014-01-06 17:07:00,
2014-01-06 12:12:00,46.2,45.4,29.43,NW,324,9.0,14.0,97,0.00,BKN,BKN,0.00,WeatherDisplay:10.34,2014-01-06 17:12:00,
2014-01-06 12:17:00,45.1,44.3,29.49,West,267,4.0,12.0,97,0.00,BKN,BKN,0.00,WeatherDisplay:10.34,2014-01-06 17:17:00,
2014-01-06 12:22:00,44.2,43.4,29.50,WNW,282,4.0,6.0,97,0.00,BKN,BKN,0.00,WeatherDisplay:10.34,2014-01-06 17:22:00,
2014-01-06 12:27:00,43.5,42.7,29.50,NNW,343,4.0,12.0,97,0.00,BKN,BKN,0.00,WeatherDisplay:10.34,2014-01-06 17:27:00,
2014-01-06 12:32:00,43.2,42.4,29.50,SSW,207,3.0,7.0,97,0.00,BKN,BKN,0.00,WeatherDisplay:10.34,2014-01-06 17:32:00,
2014-01-06 12:37:00,42.8,42.0,29.50,North,2,4.0,8.0,97,0.00,BKN,BKN,0.00,WeatherDisplay:10.34,2014-01-06 17:37:00,
2014-01-06 12:42:00,42.4,41.6,29.50,NW,305,4.0,9.0,97,0.00,BKN,BKN,0.00,WeatherDisplay:10.34,2014-01-06 17:42:00,
2014-01-06 12:47:00,42.3,41.5,29.47,WSW,238,4.0,7.0,97,0.00,BKN,BKN,0.00,WeatherDisplay:10.34,2014-01-06 17:47:00,
2014-01-06 12:52:00,42.3,41.5,29.47,WSW,257,4.0,9.0,97,0.00,BKN,BKN,0.00,WeatherDisplay:10.34,2014-01-06 17:52:00,
2014-01-06 12:57:00,42.1,41.3,29.47,West,260,4.0,6.0,97,0.00,BKN,BKN,0.00,WeatherDisplay:10.34,2014-01-06 17:57:00,
2014-01-06 13:02:00,41.9,41.1,29.44,WSW,257,3.0,6.0,97,0.00,FEW,FEW,0.00,WeatherDisplay:10.34,2014-01-06 18:02:00,
2014-01-06 13:07:00,41.9,41.1,29.44,SW,224,4.0,7.0,97,0.00,FEW,FEW,0.00,WeatherDisplay:10.34,2014-01-06 18:07:00,
2014-01-06 13:12:00,41.9,41.1,29.44,SSW,208,3.0,5.0,97,0.00,FEW,FEW,0.00,WeatherDisplay:10.34,2014-01-06 18:12:00,
2014-01-06 13:17:00,41.9,41.1,29.44,NNE,13,4.0,7.0,97,0.00,FEW,FEW,0.00,WeatherDisplay:10.34,2014-01-06 18:17:00,
2014-01-06 13:22:00,42.1,41.3,29.44,West,266,3.0,6.0,97,0.00,FEW,FEW,0.00,WeatherDisplay:10.34,2014-01-06 18:22:00,
2014-01-06 13:27:00,42.1,41.3,29.44,NNW,343,4.0,9.0,97,0.00,FEW,FEW,0.00,WeatherDisplay:10.34,2014-01-06 18:27:00,
2014-01-06 13:32:00,42.1,41.3,29.44,NNW,333,3.0,6.0,97,0.00,FEW,FEW,0.00,WeatherDisplay:10.34,2014-01-06 18:32:00,
2014-01-06 13:37:00,41.9,41.1,29.44,WSW,253,3.0,6.0,97,0.00,FEW,FEW,0.00,WeatherDisplay:10.34,2014-01-06 18:37:00,
2014-01-06 13:42:00,41.7,40.9,29.44,WSW,245,3.0,8.0,97,0.00,FEW,FEW,0.00,WeatherDisplay:10.34,2014-01-06 18:42:00,
2014-01-06 13:47:00,41.7,40.9,29.44,WNW,286,4.0,7.0,97,0.00,FEW,FEW,0.00,WeatherDisplay:10.34,2014-01-06 18:47:00,
2014-01-06 13:52:00,41.7,40.9,29.44,NW,319,7.0,8.0,97,0.00,FEW,FEW,0.00,WeatherDisplay:10.34,2014-01-06 18:52:00,
2014-01-06 13:57:00,41.7,40.9,29.44,West,278,3.0,7.0,97,0.00,FEW,FEW,0.00,WeatherDisplay:10.34,2014-01-06 18:57:00,
2014-01-06 14:02:00,41.7,40.9,29.41,NNW,334,3.0,3.0,97,0.00,BKN,BKN,0.00,WeatherDisplay:10.34,2014-01-06 19:02:00,
2014-01-06 14:07:00,41.5,40.8,29.41,WSW,243,3.0,7.0,97,0.00,BKN,BKN,0.00,WeatherDisplay:10.34,2014-01-06 19:07:00,
2014-01-06 14:12:00,41.4,40.6,29.41,NNW,328,3.0,5.0,97,0.00,BKN,BKN,0.00,WeatherDisplay:10.34,2014-01-06 19:12:00,
2014-01-06 14:17:00,41.2,40.4,29.44,West,267,4.0,6.0,97,0.00,BKN,BKN,0.00,WeatherDisplay:10.34,2014-01-06 19:17:00,
2014-01-06 14:22:00,41.0,40.2,29.44,WNW,289,3.0,8.0,97,0.00,BKN,BKN,0.00,WeatherDisplay:10.34,2014-01-06 19:22:00,
2014-01-06 14:27:00,41.0,40.2,29.44,NW,316,5.0,9.0,97,0.00,BKN,BKN,0.00,WeatherDisplay:10.34,2014-01-06 19:27:00,
2014-01-06 14:32:00,41.0,40.2,29.44,NW,316,5.0,9.0,97,0.00,BKN,BKN,0.00,WeatherDisplay:10.34,2014-01-06 19:32:00,
2014-01-06 14:37:00,40.8,40.0,29.44,SW,222,4.0,12.0,97,0.00,BKN,BKN,0.00,WeatherDisplay:10.34,2014-01-06 19:37:00,
2014-01-06 14:42:00,40.6,39.9,29.44,NNE,26,3.0,5.0,97,0.00,BKN,BKN,0.00,WeatherDisplay:10.34,2014-01-06 19:42:00,
2014-01-06 14:47:00,40.5,39.7,29.44,West,270,4.0,12.0,97,0.00,BKN,BKN,0.00,WeatherDisplay:10.34,2014-01-06 19:47:00,
2014-01-06 14:52:00,40.5,39.7,29.44,ENE,69,4.0,5.0,97,0.00,BKN,BKN,0.00,WeatherDisplay:10.34,2014-01-06 19:52:00,
2014-01-06 14:57:00,40.1,39.3,29.44,SSW,198,4.0,9.0,97,0.00,BKN,BKN,0.00,WeatherDisplay:10.34,2014-01-06 19:57:00,
2014-01-06 15:02:00,39.9,39.1,29.44,WSW,252,5.0,8.0,97,0.00,OVC,OVC,0.00,WeatherDisplay:10.34,2014-01-06 20:02:00,
2014-01-06 15:07:00,39.9,39.1,29.44,WNW,296,4.0,7.0,97,0.00,OVC,OVC,0.00,WeatherDisplay:10.34,2014-01-06 20:07:00,
2014-01-06 15:12:00,39.7,39.0,29.44,WSW,243,4.0,9.0,97,0.00,OVC,OVC,0.00,WeatherDisplay:10.34,2014-01-06 20:12:00,
2014-01-06 15:17:00,39.4,38.6,29.47,West,263,4.0,8.0,97,0.00,OVC,OVC,0.00,WeatherDisplay:10.34,2014-01-06 20:17:00,
2014-01-06 15:22:00,39.2,38.4,29.47,West,278,0.0,7.0,97,0.00,OVC,OVC,0.00,WeatherDisplay:10.34,2014-01-06 20:22:00,
2014-01-06 15:27:00,39.2,38.4,29.47,WNW,285,4.0,7.0,97,0.00,OVC,OVC,0.00,WeatherDisplay:10.34,2014-01-06 20:27:00,
2014-01-06 15:32:00,39.0,38.2,29.47,WSW,237,5.0,8.0,97,0.00,OVC,OVC,0.00,WeatherDisplay:10.34,2014-01-06 20:32:00,
2014-01-06 15:37:00,39.0,38.2,29.47,WSW,237,0.0,9.0,97,0.00,OVC,OVC,0.00,WeatherDisplay:10.34,2014-01-06 20:37:00,
2014-01-06 15:42:00,39.0,38.2,29.47,WSW,243,3.0,6.0,97,0.00,OVC,OVC,0.00,WeatherDisplay:10.34,2014-01-06 20:42:00,
2014-01-06 15:47:00,38.8,38.1,29.47,NW,313,0.0,3.0,97,0.00,OVC,OVC,0.00,WeatherDisplay:10.34,2014-01-06 20:47:00,
2014-01-06 15:52:00,38.7,37.9,29.47,West,262,0.0,10.0,97,0.00,OVC,OVC,0.00,WeatherDisplay:10.34,2014-01-06 20:52:00,
2014-01-06 15:57:00,38.5,37.7,29.47,SW,234,4.0,12.0,97,0.00,OVC,OVC,0.00,WeatherDisplay:10.34,2014-01-06 20:57:00,
2014-01-06 16:02:00,38.5,37.7,29.44,West,278,3.0,7.0,97,0.00,OVC,OVC,0.00,WeatherDisplay:10.34,2014-01-06 21:02:00,
2014-01-06 16:07:00,38.3,37.5,29.44,WNW,299,3.0,5.0,97,0.00,OVC,OVC,0.00,WeatherDisplay:10.34,2014-01-06 21:07:00,
2014-01-06 16:12:00,38.1,37.3,29.44,SSW,195,4.0,6.0,97,0.00,OVC,OVC,0.00,WeatherDisplay:10.34,2014-01-06 21:12:00,
2014-01-06 16:17:00,37.9,37.2,29.47,NNE,18,6.0,8.0,97,0.00,OVC,OVC,0.00,WeatherDisplay:10.34,2014-01-06 21:17:00,
2014-01-06 16:22:00,37.8,37.0,29.47,ENE,72,4.0,6.0,97,0.00,OVC,OVC,0.00,WeatherDisplay:10.34,2014-01-06 21:22:00,
2014-01-06 16:27:00,37.2,36.4,29.47,NNW,339,5.0,10.0,97,0.00,OVC,OVC,0.00,WeatherDisplay:10.34,2014-01-06 21:27:00,
2014-01-06 16:32:00,36.5,35.7,29.44,SW,226,7.0,10.0,97,0.00,OVC,OVC,0.00,WeatherDisplay:10.34,2014-01-06 21:32:00,
2014-01-06 16:37:00,35.8,35.0,29.44,SW,230,3.0,12.0,97,0.00,OVC,OVC,0.00,WeatherDisplay:10.34,2014-01-06 21:37:00,
2014-01-06 16:42:00,35.4,34.7,29.44,NNW,346,6.0,12.0,97,0.00,OVC,OVC,0.00,WeatherDisplay:10.34,2014-01-06 21:42:00,
2014-01-06 16:47:00,35.1,34.3,29.44,North,8,5.0,15.0,97,0.00,OVC,OVC,0.00,WeatherDisplay:10.34,2014-01-06 21:47:00,
2014-01-06 16:52:00,34.7,33.9,29.44,WNW,298,4.0,12.0,97,0.00,OVC,OVC,0.00,WeatherDisplay:10.34,2014-01-06 21:52:00,
2014-01-06 16:57:00,34.5,33.2,29.44,West,267,4.0,10.0,95,0.00,OVC,OVC,0.00,WeatherDisplay:10.34,2014-01-06 21:57:00,
2014-01-06 17:02:00,34.3,32.5,29.47,West,276,5.0,6.0,93,0.00,OVC,OVC,0.00,WeatherDisplay:10.34,2014-01-06 22:02:00,
2014-01-06 17:07:00,34.2,31.5,29.47,North,10,5.0,9.0,90,0.00,OVC,OVC,0.00,WeatherDisplay:10.34,2014-01-06 22:07:00,
2014-01-06 17:12:00,34.2,31.0,29.47,South,173,4.0,12.0,88,0.00,OVC,OVC,0.00,WeatherDisplay:10.34,2014-01-06 22:12:00,
2014-01-06 17:17:00,34.0,30.2,29.47,NNW,346,4.0,12.0,86,0.00,OVC,OVC,0.00,WeatherDisplay:10.34,2014-01-06 22:17:00,
2014-01-06 17:22:00,33.8,29.5,29.47,NNW,346,4.0,9.0,84,0.00,OVC,OVC,0.00,WeatherDisplay:10.34,2014-01-06 22:22:00,
2014-01-06 17:27:00,33.6,28.7,29.47,SW,236,5.0,12.0,82,0.00,OVC,OVC,0.00,WeatherDisplay:10.34,2014-01-06 22:27:00,
2014-01-06 17:32:00,33.6,28.1,29.47,SSW,201,4.0,7.0,80,0.00,OVC,OVC,0.00,WeatherDisplay:10.34,2014-01-06 22:32:00,
2014-01-06 17:38:00,33.3,26.5,29.47,NNW,331,4.0,10.0,76,0.00,OVC,OVC,0.00,WeatherDisplay:10.34,2014-01-06 22:38:00,
2014-01-06 17:43:00,33.3,25.9,29.47,South,181,0.0,5.0,74,0.00,OVC,OVC,0.00,WeatherDisplay:10.34,2014-01-06 22:43:00,
2014-01-06 17:48:00,33.1,24.7,29.47,North,1,6.0,16.0,71,0.00,OVC,OVC,0.00,WeatherDisplay:10.34,2014-01-06 22:48:00,
2014-01-06 17:53:00,32.9,24.2,29.47,WSW,248,5.0,12.0,70,0.00,OVC,OVC,0.00,WeatherDisplay:10.34,2014-01-06 22:53:00,
2014-01-06 17:58:00,32.7,23.3,29.47,NNW,330,6.0,14.0,68,0.00,OVC,OVC,0.00,WeatherDisplay:10.34,2014-01-06 22:58:00,
2014-01-06 18:03:00,32.7,23.0,29.47,NW,319,4.0,7.0,67,0.00,OVC,OVC,0.00,WeatherDisplay:10.34,2014-01-06 23:03:00,
2014-01-06 18:08:00,32.5,22.1,29.47,NW,310,3.0,6.0,65,0.00,OVC,OVC,0.00,WeatherDisplay:10.34,2014-01-06 23:08:00,
2014-01-06 18:13:00,32.5,21.7,29.47,North,0,5.0,12.0,64,0.00,OVC,OVC,0.00,WeatherDisplay:10.34,2014-01-06 23:13:00,
2014-01-06 18:18:00,32.4,20.4,29.47,North,0,3.0,10.0,61,0.00,OVC,OVC,0.00,WeatherDisplay:10.34,2014-01-06 23:18:00,
2014-01-06 18:23:00,32.2,19.8,29.47,SSW,199,4.0,8.0,60,0.00,OVC,OVC,0.00,WeatherDisplay:10.34,2014-01-06 23:23:00,
2014-01-06 18:28:00,32.0,18.9,29.47,SSW,212,4.0,9.0,58,0.00,OVC,OVC,0.00,WeatherDisplay:10.34,2014-01-06 23:28:00,
2014-01-06 18:33:00,31.6,17.3,29.51,NNE,14,5.0,7.0,55,0.00,OVC,OVC,0.00,WeatherDisplay:10.34,2014-01-06 23:33:00,
2014-01-06 18:38:00,31.5,17.1,29.51,NNW,334,6.0,16.0,55,0.00,OVC,OVC,0.00,WeatherDisplay:10.34,2014-01-06 23:38:00,
2014-01-06 18:43:00,31.3,17.0,29.51,South,190,3.0,8.0,55,0.00,OVC,OVC,0.00,WeatherDisplay:10.34,2014-01-06 23:43:00,
2014-01-06 18:48:00,31.1,16.4,29.51,WSW,240,5.0,9.0,54,0.00,OVC,OVC,0.00,WeatherDisplay:10.34,2014-01-06 23:48:00,
2014-01-06 18:53:00,30.9,16.2,29.51,WSW,249,0.0,5.0,54,0.00,OVC,OVC,0.00,WeatherDisplay:10.34,2014-01-06 23:53:00,
2014-01-06 18:58:00,30.7,16.0,29.51,NNW,336,0.0,3.0,54,0.00,OVC,OVC,0.00,WeatherDisplay:10.34,2014-01-06 23:58:00,
2014-01-06 19:03:00,30.6,15.9,29.51,WNW,289,5.0,9.0,54,0.00,CLR,CLR,0.00,WeatherDisplay:10.34,2014-01-07 00:03:00,
2014-01-06 19:08:00,30.4,15.7,29.51,North,351,4.0,12.0,54,0.00,CLR,CLR,0.00,WeatherDisplay:10.34,2014-01-07 00:08:00,
2014-01-06 19:13:00,30.4,15.3,29.51,WNW,302,3.0,10.0,53,0.00,CLR,CLR,0.00,WeatherDisplay:10.34,2014-01-07 00:13:00,
2014-01-06 19:18:00,30.0,14.5,29.51,South,173,4.0,12.0,52,0.00,CLR,CLR,0.00,WeatherDisplay:10.34,2014-01-07 00:18:00,
2014-01-06 19:23:00,29.8,14.3,29.51,NW,316,3.0,6.0,52,0.00,CLR,CLR,0.00,WeatherDisplay:10.34,2014-01-07 00:23:00,
2014-01-06 19:28:00,29.7,14.2,29.51,NNW,334,3.0,6.0,52,0.00,CLR,CLR,0.00,WeatherDisplay:10.34,2014-01-07 00:28:00,
2014-01-06 19:33:00,29.7,14.2,29.51,WSW,244,4.0,5.0,52,0.00,CLR,CLR,0.00,WeatherDisplay:10.34,2014-01-07 00:33:00,
2014-01-06 19:38:00,29.7,14.2,29.51,North,351,4.0,5.0,52,0.00,CLR,CLR,0.00,WeatherDisplay:10.34,2014-01-07 00:38:00,
2014-01-06 19:43:00,29.5,14.0,29.51,NNE,26,3.0,7.0,52,0.00,CLR,CLR,0.00,WeatherDisplay:10.34,2014-01-07 00:43:00,
2014-01-06 19:48:00,29.3,13.8,29.51,NNE,17,4.0,7.0,52,0.00,CLR,CLR,0.00,WeatherDisplay:10.34,2014-01-07 00:48:00,
2014-01-06 19:53:00,29.1,13.7,29.51,NNE,21,0.0,5.0,52,0.00,CLR,CLR,0.00,WeatherDisplay:10.34,2014-01-07 00:53:00,
2014-01-06 19:58:00,29.3,14.3,29.51,North,1,0.0,6.0,53,0.00,CLR,CLR,0.00,WeatherDisplay:10.34,2014-01-07 00:58:00,
2014-01-06 20:03:00,29.3,14.7,29.51,NNW,341,0.0,3.0,54,0.00,CLR,CLR,0.00,WeatherDisplay:10.34,2014-01-07 01:03:00,
2014-01-06 20:08:00,29.3,14.7,29.51,NNE,32,3.0,5.0,54,0.00,CLR,CLR,0.00,WeatherDisplay:10.34,2014-01-07 01:08:00,
2014-01-06 20:13:00,29.3,14.7,29.51,North,351,3.0,9.0,54,0.00,CLR,CLR,0.00,WeatherDisplay:10.34,2014-01-07 01:13:00,
2014-01-06 20:18:00,29.1,14.1,29.51,WSW,250,5.0,7.0,53,0.00,CLR,CLR,0.00,WeatherDisplay:10.34,2014-01-07 01:18:00,
2014-01-06 20:23:00,29.1,13.7,29.51,NNW,331,3.0,5.0,52,0.00,CLR,CLR,0.00,WeatherDisplay:10.34,2014-01-07 01:23:00,
2014-01-06 20:28:00,29.1,13.7,29.51,NE,48,3.0,3.0,52,0.00,CLR,CLR,0.00,WeatherDisplay:10.34,2014-01-07 01:28:00,
2014-01-06 20:33:00,28.9,13.1,29.51,WSW,237,0.0,6.0,51,0.00,CLR,CLR,0.00,WeatherDisplay:10.34,2014-01-07 01:33:00,
2014-01-06 20:39:00,28.9,13.1,29.51,NE,36,3.0,3.0,51,0.00,CLR,CLR,0.00,WeatherDisplay:10.34,2014-01-07 01:39:00,
2014-01-06 20:44:00,28.8,12.4,29.51,NNW,329,5.0,9.0,50,0.00,CLR,CLR,0.00,WeatherDisplay:10.34,2014-01-07 01:44:00,
2014-01-06 20:49:00,28.8,12.0,29.54,NNW,342,3.0,8.0,49,0.00,CLR,CLR,0.00,WeatherDisplay:10.34,2014-01-07 01:49:00,
2014-01-06 20:54:00,28.8,12.4,29.54,NNW,334,0.0,7.0,50,0.00,CLR,CLR,0.00,WeatherDisplay:10.34,2014-01-07 01:54:00,
2014-01-06 20:59:00,28.6,12.7,29.54,WSW,247,0.0,5.0,51,0.00,CLR,CLR,0.00,WeatherDisplay:10.34,2014-01-07 01:59:00,
2014-01-06 21:04:00,28.4,12.1,29.54,North,351,3.0,10.0,50,0.00,FEW,FEW,0.00,WeatherDisplay:10.34,2014-01-07 02:04:00,
2014-01-06 21:09:00,28.2,11.0,29.54,SW,226,5.0,6.0,48,0.00,FEW,FEW,0.00,WeatherDisplay:10.34,2014-01-07 02:09:00,
2014-01-06 21:14:00,28.0,11.3,29.54,SSW,206,3.0,5.0,49,0.00,FEW,FEW,0.00,WeatherDisplay:10.34,2014-01-07 02:14:00,
2014-01-06 21:19:00,28.0,11.3,29.54,North,351,0.0,12.0,49,0.00,FEW,FEW,0.00,WeatherDisplay:10.34,2014-01-07 02:19:00,
2014-01-06 21:24:00,28.0,11.3,29.54,North,1,0.0,5.0,49,0.00,FEW,FEW,0.00,WeatherDisplay:10.34,2014-01-07 02:24:00,
2014-01-06 21:29:00,27.9,10.7,29.54,North,10,4.0,9.0,48,0.00,FEW,FEW,0.00,WeatherDisplay:10.34,2014-01-07 02:29:00,
2014-01-06 21:34:00,27.9,10.7,29.54,SSW,209,4.0,7.0,48,0.00,FEW,FEW,0.00,WeatherDisplay:10.34,2014-01-07 02:34:00,
2014-01-06 21:39:00,27.7,10.5,29.54,SSW,209,4.0,7.0,48,0.00,FEW,FEW,0.00,WeatherDisplay:10.34,2014-01-07 02:39:00,
2014-01-06 21:44:00,27.5,9.9,29.54,NNE,13,3.0,6.0,47,0.00,FEW,FEW,0.00,WeatherDisplay:10.34,2014-01-07 02:44:00,
2014-01-06 21:49:00,27.5,10.4,29.54,NNW,347,3.0,7.0,48,0.00,FEW,FEW,0.00,WeatherDisplay:10.34,2014-01-07 02:49:00,
2014-01-06 21:54:00,27.5,10.4,29.54,NNW,332,3.0,6.0,48,0.00,FEW,FEW,0.00,WeatherDisplay:10.34,2014-01-07 02:54:00,
2014-01-06 21:59:00,27.3,10.2,29.54,North,6,7.0,12.0,48,0.00,FEW,FEW,0.00,WeatherDisplay:10.34,2014-01-07 02:59:00,
2014-01-06 22:04:00,27.1,10.0,29.54,NNW,345,5.0,7.0,48,0.00,BKN,BKN,0.00,WeatherDisplay:10.34,2014-01-07 03:04:00,
2014-01-06 22:09:00,27.0,8.9,29.54,NE,35,5.0,9.0,46,0.00,BKN,BKN,0.00,WeatherDisplay:10.34,2014-01-07 03:09:00,
2014-01-06 22:14:00,27.0,9.4,29.54,North,351,0.0,5.0,47,0.00,BKN,BKN,0.00,WeatherDisplay:10.34,2014-01-07 03:14:00,
2014-01-06 22:19:00,26.8,9.2,29.54,NNE,16,0.0,2.0,47,0.00,BKN,BKN,0.00,WeatherDisplay:10.34,2014-01-07 03:19:00,
2014-01-06 22:24:00,26.8,9.2,29.54,NNE,27,0.0,8.0,47,0.00,BKN,BKN,0.00,WeatherDisplay:10.34,2014-01-07 03:24:00,
2014-01-06 22:29:00,26.8,9.2,29.54,NW,320,5.0,8.0,47,0.00,BKN,BKN,0.00,WeatherDisplay:10.34,2014-01-07 03:29:00,
2014-01-06 22:34:00,26.4,8.9,29.54,North,4,4.0,9.0,47,0.00,BKN,BKN,0.00,WeatherDisplay:10.34,2014-01-07 03:34:00,
2014-01-06 22:39:00,26.4,9.4,29.54,WSW,249,3.0,3.0,48,0.00,BKN,BKN,0.00,WeatherDisplay:10.34,2014-01-07 03:39:00,
2014-01-06 22:44:00,26.2,9.6,29.54,NNW,336,5.0,6.0,49,0.00,BKN,BKN,0.00,WeatherDisplay:10.34,2014-01-07 03:44:00,
2014-01-06 22:49:00,26.2,9.6,29.54,West,280,0.0,6.0,49,0.00,BKN,BKN,0.00,WeatherDisplay:10.34,2014-01-07 03:49:00,
2014-01-06 22:54:00,26.2,10.5,29.54,WNW,298,3.0,12.0,51,0.00,BKN,BKN,0.00,WeatherDisplay:10.34,2014-01-07 03:54:00,
2014-01-06 22:59:00,25.9,9.8,29.54,NNW,347,3.0,9.0,50,0.00,BKN,BKN,0.00,WeatherDisplay:10.34,2014-01-07 03:59:00,
2014-01-06 23:05:00,25.5,10.3,29.54,West,276,6.0,8.0,52,0.00,BKN,BKN,0.00,WeatherDisplay:10.34,2014-01-07 04:05:00,
2014-01-06 23:10:00,25.3,10.6,29.54,SW,217,4.0,7.0,53,0.00,BKN,BKN,0.00,WeatherDisplay:10.34,2014-01-07 04:10:00,
2014-01-06 23:15:00,25.2,10.4,29.53,SW,228,3.0,3.0,53,0.00,BKN,BKN,0.00,WeatherDisplay:10.34,2014-01-07 04:15:00,
2014-01-06 23:20:00,25.0,10.7,29.56,South,176,0.0,7.0,54,0.00,BKN,BKN,0.00,WeatherDisplay:10.34,2014-01-07 04:20:00,
2014-01-06 23:25:00,24.8,10.9,29.56,West,260,4.0,6.0,55,0.00,BKN,BKN,0.00,WeatherDisplay:10.34,2014-01-07 04:25:00,
2014-01-06 23:30:00,24.6,10.7,29.56,WNW,292,0.0,3.0,55,0.00,BKN,BKN,0.00,WeatherDisplay:10.34,2014-01-07 04:30:00,
2014-01-06 23:35:00,24.6,11.1,29.56,WNW,282,0.0,5.0,56,0.00,BKN,BKN,0.00,WeatherDisplay:10.34,2014-01-07 04:35:00,
2014-01-06 23:40:00,24.4,11.4,29.56,NW,320,3.0,12.0,57,0.00,BKN,BKN,0.00,WeatherDisplay:10.34,2014-01-07 04:40:00,
2014-01-06 23:45:00,24.3,12.4,29.56,NNW,342,0.0,0.0,60,0.00,BKN,BKN,0.00,WeatherDisplay:10.34,2014-01-07 04:45:00,
2014-01-06 23:50:00,23.9,12.4,29.56,WNW,288,5.0,9.0,61,0.00,BKN,BKN,0.00,WeatherDisplay:10.34,2014-01-07 04:50:00,
2014-01-06 23:55:00,23.5,12.4,29.56,WNW,288,4.0,9.0,62,0.00,BKN,BKN,0.00,WeatherDisplay:10.34,2014-01-07 04:55:00,